Time;durP1;ratioP1;P1;durP2;ratioP2;P2;SDS_P1;SDS_P2;PMS_P1;PMS_P2;Temp;Humidity;BMP_temperature;BMP_pressure;BME280_temperature;BME280_humidity;BME280_pressure;Samples;Min_cycle;Max_cycle;Signal;HPM_P1;HPM_P2
2021/01/12 00:01:52;;;;;;;13.75;11.80;;;1.60;1.00;;;;;;5093604;28;20237;-81
2021/01/12 00:04:19;;;;;;;17.30;12.00;;;1.60;1.00;;;;;;5070695;28;20225;-81
2021/01/12 00:06:49;;;;;;;16.10;11.50;;;1.60;1.00;;;;;;5061617;28;20267;-82
2021/01/12 00:09:16;;;;;;;14.18;11.48;;;1.60;1.00;;;;;;5074983;28;20225;-82
2021/01/12 00:11:43;;;;;;;14.63;12.15;;;1.70;1.00;;;;;;5074221;28;20283;-81
2021/01/12 00:14:30;;;;;;;14.40;11.40;;;1.60;1.00;;;;;;5053516;28;20705;-82
2021/01/12 00:16:56;;;;;;;12.98;10.60;;;1.60;1.00;;;;;;5069882;28;20718;-82
2021/01/12 00:19:22;;;;;;;15.13;11.90;;;1.50;1.00;;;;;;5058187;28;20279;-81
2021/01/12 00:21:50;;;;;;;13.30;10.68;;;1.50;1.00;;;;;;5056349;28;21069;-82
2021/01/12 00:24:16;;;;;;;13.23;11.30;;;1.60;1.00;;;;;;5050693;28;20817;-82
2021/01/12 00:26:43;;;;;;;12.95;11.40;;;1.60;1.00;;;;;;5071461;28;20243;-81
2021/01/12 00:29:10;;;;;;;14.88;11.65;;;1.60;1.00;;;;;;5059686;28;20971;-82
2021/01/12 00:31:39;;;;;;;16.48;11.43;;;1.60;1.00;;;;;;5063894;28;20220;-82
2021/01/12 00:34:06;;;;;;;15.70;12.00;;;1.60;1.00;;;;;;5074188;28;20221;-80
2021/01/12 00:36:33;;;;;;;15.20;11.68;;;1.70;1.00;;;;;;5061443;28;20236;-82
2021/01/12 00:39:02;;;;;;;14.32;12.10;;;1.60;1.00;;;;;;5081240;28;20217;-81
2021/01/12 00:41:29;;;;;;;13.20;10.50;;;1.70;1.00;;;;;;5065520;28;20221;-83
2021/01/12 00:43:57;;;;;;;14.95;11.90;;;1.70;1.00;;;;;;5076159;28;20256;-82
2021/01/12 00:46:23;;;;;;;17.73;12.23;;;1.60;1.00;;;;;;5074563;28;20236;-81
2021/01/12 00:48:49;;;;;;;15.02;12.02;;;1.70;1.00;;;;;;5085687;28;20315;-81
2021/01/12 00:51:16;;;;;;;12.63;11.25;;;1.70;1.00;;;;;;5055978;28;20232;-81
2021/01/12 00:53:43;;;;;;;15.32;11.73;;;1.70;1.00;;;;;;5076929;28;20230;-80
2021/01/12 00:56:14;;;;;;;15.70;12.02;;;1.70;1.00;;;;;;5062254;28;20208;-82
2021/01/12 00:58:40;;;;;;;15.98;12.23;;;1.70;1.00;;;;;;5054527;28;20228;-82
2021/01/12 01:01:07;;;;;;;15.18;11.95;;;1.80;1.00;;;;;;5081729;28;20217;-82
2021/01/12 01:03:34;;;;;;;15.43;11.90;;;1.80;1.00;;;;;;5082385;28;20701;-81
2021/01/12 01:06:06;;;;;;;14.77;12.10;;;1.80;1.00;;;;;;5063302;28;20232;-81
2021/01/12 01:08:32;;;;;;;15.80;11.57;;;1.80;1.00;;;;;;5082703;28;20209;-80
2021/01/12 01:11:02;;;;;;;13.88;11.45;;;1.80;1.00;;;;;;5085886;28;20619;-82
2021/01/12 01:13:29;;;;;;;13.20;10.90;;;1.80;1.00;;;;;;5079747;28;20239;-82
2021/01/12 01:15:55;;;;;;;16.08;12.45;;;1.80;1.00;;;;;;5066023;28;20255;-82
2021/01/12 01:18:22;;;;;;;17.48;13.70;;;1.80;1.00;;;;;;5073319;28;20244;-82
2021/01/12 01:20:49;;;;;;;15.82;11.93;;;1.90;1.00;;;;;;5078781;28;20313;-82
2021/01/12 01:23:16;;;;;;;11.80;10.55;;;1.90;1.00;;;;;;5081051;28;20244;-82
2021/01/12 01:25:43;;;;;;;16.00;13.27;;;1.90;1.00;;;;;;5075958;28;20225;-81
2021/01/12 01:28:10;;;;;;;15.25;11.73;;;1.90;1.00;;;;;;5078098;28;20213;-82
2021/01/12 01:30:37;;;;;;;11.98;10.70;;;2.00;1.00;;;;;;5077975;28;20221;-83
2021/01/12 01:33:05;;;;;;;13.02;10.60;;;2.00;1.00;;;;;;5078060;28;20229;-81
2021/01/12 01:35:31;;;;;;;16.17;11.50;;;2.00;1.00;;;;;;5081827;28;21009;-81
2021/01/12 01:37:58;;;;;;;15.05;12.32;;;2.00;1.00;;;;;;5073533;28;20216;-81
2021/01/12 01:40:25;;;;;;;14.32;11.48;;;2.10;1.00;;;;;;5064501;28;20225;-81
2021/01/12 01:42:52;;;;;;;18.05;13.88;;;2.10;1.00;;;;;;5056800;28;20235;-82
2021/01/12 01:45:19;;;;;;;16.17;12.35;;;2.10;1.00;;;;;;5074533;28;20221;-81
2021/01/12 01:47:46;;;;;;;16.40;12.43;;;2.10;1.00;;;;;;5086624;28;20213;-82
2021/01/12 01:50:15;;;;;;;19.40;13.45;;;2.10;1.00;;;;;;5087125;28;20217;-80
2021/01/12 01:52:45;;;;;;;15.27;13.68;;;2.20;1.00;;;;;;5081112;28;20213;-83
2021/01/12 01:55:14;;;;;;;17.60;12.60;;;2.10;1.00;;;;;;5091691;28;20319;-82
2021/01/12 01:57:40;;;;;;;14.00;11.88;;;2.10;1.00;;;;;;5063589;28;20271;-81
2021/01/12 02:00:08;;;;;;;18.05;13.70;;;2.00;1.00;;;;;;5089263;28;20247;-81
2021/01/12 02:02:38;;;;;;;18.15;13.38;;;2.00;1.00;;;;;;5078204;28;20260;-81
2021/01/12 02:05:12;;;;;;;17.33;13.50;;;1.90;1.00;;;;;;5075620;28;20267;-81
2021/01/12 02:07:43;;;;;;;18.23;14.13;;;1.80;1.00;;;;;;5077028;28;20212;-82
2021/01/12 02:10:14;;;;;;;20.60;15.13;;;1.70;1.00;;;;;;5087960;28;20232;-81
2021/01/12 02:12:47;;;;;;;20.52;15.98;;;1.60;1.00;;;;;;5074785;28;20254;-82
2021/01/12 02:15:19;;;;;;;21.55;14.40;;;1.50;1.00;;;;;;5077988;28;20267;-82
2021/01/12 02:17:47;;;;;;;22.63;16.52;;;1.40;1.00;;;;;;5091258;28;20213;-81
2021/01/12 02:20:16;;;;;;;22.27;17.00;;;1.30;1.00;;;;;;5088276;28;20356;-82
2021/01/12 02:22:47;;;;;;;24.23;17.50;;;1.30;1.00;;;;;;5071146;28;20248;-83
2021/01/12 02:25:18;;;;;;;21.55;17.05;;;1.30;1.00;;;;;;5075133;28;20233;-82
2021/01/12 02:27:45;;;;;;;22.63;16.85;;;1.20;1.00;;;;;;5075913;28;20228;-82
2021/01/12 02:30:13;;;;;;;25.42;17.75;;;1.20;1.00;;;;;;5085778;28;20267;-82
2021/01/12 02:32:40;;;;;;;23.38;17.10;;;1.10;1.00;;;;;;5062675;28;20225;-81
2021/01/12 02:35:08;;;;;;;26.20;17.00;;;1.10;1.00;;;;;;5069708;28;20657;-81
2021/01/12 02:37:39;;;;;;;24.73;17.05;;;1.10;1.00;;;;;;5079471;28;20224;-82
2021/01/12 02:40:07;;;;;;;22.33;17.70;;;1.10;1.00;;;;;;5061421;28;20611;-82
2021/01/12 02:42:34;;;;;;;26.52;17.35;;;1.00;1.00;;;;;;5081630;28;20229;-80
2021/01/12 02:45:00;;;;;;;24.63;18.70;;;1.00;1.00;;;;;;5075406;28;20964;-80
2021/01/12 02:47:27;;;;;;;25.95;19.13;;;1.00;1.00;;;;;;5070135;28;20285;-79
2021/01/12 02:49:54;;;;;;;28.38;19.27;;;1.00;1.00;;;;;;5065677;28;20218;-81
2021/01/12 02:52:20;;;;;;;26.00;18.65;;;1.00;1.00;;;;;;5079546;28;20216;-81
2021/01/12 02:54:49;;;;;;;25.88;19.15;;;1.00;1.00;;;;;;5078858;28;20209;-80
2021/01/12 02:57:15;;;;;;;23.23;17.88;;;1.00;1.00;;;;;;5076078;28;20247;-80
2021/01/12 02:59:42;;;;;;;29.27;18.85;;;1.00;1.00;;;;;;5067377;28;20217;-80
2021/01/12 03:02:08;;;;;;;27.17;19.60;;;0.90;1.00;;;;;;5062442;28;20213;-81
2021/01/12 03:04:35;;;;;;;28.15;21.05;;;0.90;1.00;;;;;;5054409;28;20239;-81
2021/01/12 03:07:02;;;;;;;27.17;18.33;;;1.00;1.00;;;;;;5074245;28;20221;-81
2021/01/12 03:09:28;;;;;;;25.13;19.10;;;0.90;1.00;;;;;;5074797;28;20366;-81
2021/01/12 03:11:55;;;;;;;26.65;19.20;;;1.00;1.00;;;;;;5079168;28;20504;-80
2021/01/12 03:14:23;;;;;;;28.55;21.23;;;0.90;1.00;;;;;;5071106;28;20310;-81
2021/01/12 03:16:51;;;;;;;28.70;21.33;;;0.90;1.00;;;;;;5079037;28;20213;-81
2021/01/12 03:19:18;;;;;;;29.40;20.73;;;1.00;1.00;;;;;;5085313;28;20228;-80
2021/01/12 03:21:45;;;;;;;26.83;19.90;;;0.90;1.00;;;;;;5082078;28;20225;-81
2021/01/12 03:24:12;;;;;;;30.10;21.10;;;1.00;1.00;;;;;;5071395;28;20224;-81
2021/01/12 03:26:38;;;;;;;25.27;20.20;;;1.00;1.00;;;;;;5053882;28;20276;-81
2021/01/12 03:29:05;;;;;;;30.10;20.75;;;1.00;1.00;;;;;;5055327;28;20589;-81
2021/01/12 03:31:31;;;;;;;27.92;19.40;;;1.00;1.00;;;;;;5054192;28;20223;-81
2021/01/12 03:33:59;;;;;;;34.20;23.65;;;1.00;1.00;;;;;;5072003;28;20224;-80
2021/01/12 03:36:25;;;;;;;31.90;21.70;;;1.00;1.00;;;;;;5070511;28;20225;-81
2021/01/12 03:38:52;;;;;;;31.65;22.90;;;1.00;1.00;;;;;;5080313;28;20270;-81
2021/01/12 03:41:18;;;;;;;26.63;21.15;;;1.00;1.00;;;;;;5073569;28;20861;-80
2021/01/12 03:43:45;;;;;;;28.63;21.00;;;1.00;1.00;;;;;;5047677;28;20243;-80
2021/01/12 03:46:11;;;;;;;28.05;21.30;;;1.00;1.00;;;;;;5074449;28;20279;-81
2021/01/12 03:48:38;;;;;;;27.88;22.02;;;1.00;1.00;;;;;;5074014;28;20226;-81
2021/01/12 03:51:05;;;;;;;31.27;22.73;;;1.00;1.00;;;;;;5055862;28;20225;-81
2021/01/12 03:53:31;;;;;;;30.98;22.90;;;1.10;1.00;;;;;;5077788;28;20234;-81
2021/01/12 03:55:58;;;;;;;29.13;22.48;;;1.00;1.00;;;;;;5079443;28;21188;-81
2021/01/12 03:58:24;;;;;;;33.58;24.77;;;1.10;1.00;;;;;;5073445;28;20660;-81
2021/01/12 04:00:51;;;;;;;36.03;24.25;;;1.10;1.00;;;;;;5076872;28;20715;-81
2021/01/12 04:03:19;;;;;;;35.92;25.45;;;1.10;1.00;;;;;;5064163;28;20236;-82
2021/01/12 04:05:46;;;;;;;36.47;24.95;;;1.10;1.00;;;;;;5075164;28;20258;-80
2021/01/12 04:08:14;;;;;;;34.53;24.52;;;1.10;1.00;;;;;;5078889;28;20227;-81
2021/01/12 04:10:40;;;;;;;32.35;25.67;;;1.20;1.00;;;;;;5066483;28;20230;-81
2021/01/12 04:13:07;;;;;;;32.53;24.80;;;1.20;1.00;;;;;;5078478;28;20700;-81
2021/01/12 04:15:33;;;;;;;34.05;24.73;;;1.20;1.00;;;;;;5074761;28;20226;-81
2021/01/12 04:18:00;;;;;;;33.72;24.30;;;1.20;1.00;;;;;;5058830;28;20221;-81
2021/01/12 04:20:26;;;;;;;36.10;24.77;;;1.20;1.00;;;;;;5077825;28;20213;-80
2021/01/12 04:22:53;;;;;;;36.47;27.02;;;1.20;1.00;;;;;;5059485;28;20324;-83
2021/01/12 04:25:23;;;;;;;39.38;27.88;;;1.20;1.00;;;;;;5061925;28;20221;-82
2021/01/12 04:27:49;;;;;;;39.17;26.30;;;1.20;1.00;;;;;;5059340;28;21137;-82
2021/01/12 04:30:17;;;;;;;36.60;26.67;;;1.20;1.00;;;;;;5074099;28;20248;-81
2021/01/12 04:32:43;;;;;;;35.97;26.70;;;1.20;1.00;;;;;;5072189;28;20375;-79
2021/01/12 04:35:10;;;;;;;35.45;27.13;;;1.20;1.00;;;;;;5087343;28;20221;-82
2021/01/12 04:37:37;;;;;;;35.50;25.65;;;1.20;1.00;;;;;;5093384;28;20216;-81
2021/01/12 04:40:07;;;;;;;34.40;27.10;;;1.20;1.00;;;;;;5084774;28;20209;-82
2021/01/12 04:42:35;;;;;;;44.88;31.23;;;1.30;1.00;;;;;;5093514;28;20232;-80
2021/01/12 04:45:03;;;;;;;41.53;28.23;;;1.20;1.00;;;;;;5071859;28;20269;-82
2021/01/12 04:47:31;;;;;;;38.13;27.15;;;1.20;1.00;;;;;;5091888;28;20236;-83
2021/01/12 04:50:01;;;;;;;32.53;25.40;;;1.20;1.00;;;;;;5075020;28;20222;-80
2021/01/12 04:52:28;;;;;;;34.13;25.77;;;1.20;1.00;;;;;;5062790;28;20287;-82
2021/01/12 04:54:54;;;;;;;42.33;30.60;;;1.20;1.00;;;;;;5088856;28;20724;-81
2021/01/12 04:57:21;;;;;;;36.08;28.80;;;1.20;1.00;;;;;;5067914;28;20220;-82
2021/01/12 04:59:48;;;;;;;42.13;29.58;;;1.20;1.00;;;;;;5062386;28;20234;-82
2021/01/12 05:02:15;;;;;;;40.15;28.98;;;1.20;1.00;;;;;;5066067;28;20236;-81
2021/01/12 05:04:43;;;;;;;35.95;26.80;;;1.20;1.00;;;;;;5052370;28;20236;-81
2021/01/12 05:07:10;;;;;;;46.47;31.75;;;1.20;1.00;;;;;;5083398;28;20221;-81
2021/01/12 05:09:39;;;;;;;38.00;28.13;;;1.30;1.00;;;;;;5065303;28;20249;-80
2021/01/12 05:12:07;;;;;;;38.22;28.15;;;1.30;1.00;;;;;;5090269;28;20288;-80
2021/01/12 05:14:37;;;;;;;37.33;28.83;;;1.30;1.00;;;;;;5086078;28;20225;-82
2021/01/12 05:17:05;;;;;;;43.83;29.42;;;1.30;1.00;;;;;;5080701;28;20312;-81
2021/01/12 05:19:33;;;;;;;41.03;29.25;;;1.30;1.00;;;;;;5063399;28;20391;-82
2021/01/12 05:22:03;;;;;;;37.97;28.58;;;1.30;1.00;;;;;;5088382;28;20224;-82
2021/01/12 05:24:31;;;;;;;37.90;27.40;;;1.30;1.00;;;;;;5075314;28;20279;-81
2021/01/12 05:27:06;;;;;;;38.88;30.23;;;1.30;1.00;;;;;;5078950;28;20231;-81
2021/01/12 05:29:34;;;;;;;36.65;28.10;;;1.30;1.00;;;;;;5064897;28;20224;-81
2021/01/12 05:32:03;;;;;;;45.03;30.25;;;1.40;1.00;;;;;;5085649;28;20255;-81
2021/01/12 05:34:35;;;;;;;35.22;27.60;;;1.40;1.00;;;;;;5091863;28;20229;-80
2021/01/12 05:37:04;;;;;;;41.75;29.83;;;1.40;1.00;;;;;;5078528;28;20283;-80
2021/01/12 05:39:37;;;;;;;38.63;28.60;;;1.40;1.00;;;;;;5086467;28;20213;-81
2021/01/12 05:42:06;;;;;;;47.80;35.05;;;1.40;1.00;;;;;;5074972;28;20248;-82
2021/01/12 05:44:38;;;;;;;38.85;29.08;;;1.40;1.00;;;;;;5083712;28;20232;-82
2021/01/12 05:47:05;;;;;;;41.42;29.73;;;1.40;1.00;;;;;;5083895;28;20224;-84
2021/01/12 05:49:33;;;;;;;41.10;29.85;;;1.40;1.00;;;;;;5090522;28;20385;-82
2021/01/12 05:52:01;;;;;;;38.38;28.13;;;1.40;1.00;;;;;;5057626;28;20289;-80
2021/01/12 05:54:33;;;;;;;34.25;26.20;;;1.40;1.00;;;;;;5058588;28;20228;-82
2021/01/12 05:57:01;;;;;;;38.10;27.27;;;1.40;1.00;;;;;;5060371;28;20225;-81
2021/01/12 05:59:29;;;;;;;38.00;27.52;;;1.30;1.00;;;;;;5075121;28;20275;-81
2021/01/12 06:01:56;;;;;;;37.17;27.75;;;1.40;1.00;;;;;;5084383;28;20338;-81
2021/01/12 06:04:24;;;;;;;39.10;30.25;;;1.40;1.00;;;;;;5056610;28;20736;-81
2021/01/12 06:06:52;;;;;;;38.70;29.30;;;1.40;1.00;;;;;;5060665;28;20233;-81
2021/01/12 06:09:20;;;;;;;43.80;33.22;;;1.40;1.00;;;;;;5079949;28;21097;-81
2021/01/12 06:11:49;;;;;;;42.95;30.20;;;1.30;1.00;;;;;;5055253;28;20236;-81
2021/01/12 06:14:17;;;;;;;42.88;31.80;;;1.30;1.00;;;;;;5075996;28;20233;-81
2021/01/12 06:16:45;;;;;;;40.80;31.95;;;1.40;1.00;;;;;;5062274;28;20228;-80
2021/01/12 06:19:15;;;;;;;47.60;33.40;;;1.40;1.00;;;;;;5063257;28;20227;-81
2021/01/12 06:22:18;;;;;;;40.35;28.88;;;1.40;1.00;;;;;;5082056;28;20229;-80
2021/01/12 06:24:52;;;;;;;40.78;30.00;;;1.50;1.00;;;;;;5068567;28;20335;-81
2021/01/12 06:27:23;;;;;;;40.22;30.10;;;1.40;1.00;;;;;;5082147;28;20239;-79
2021/01/12 06:29:51;;;;;;;43.80;32.33;;;1.40;1.00;;;;;;5084758;28;20197;-80
2021/01/12 06:32:18;;;;;;;48.25;32.20;;;1.40;1.00;;;;;;5081289;28;20276;-80
2021/01/12 06:34:45;;;;;;;37.75;29.52;;;1.40;1.00;;;;;;5082118;28;20271;-79
2021/01/12 06:37:15;;;;;;;47.63;31.70;;;1.40;1.00;;;;;;5076233;28;20277;-80
2021/01/12 06:39:45;;;;;;;43.72;29.55;;;1.40;1.00;;;;;;5084015;28;20267;-80
2021/01/12 06:42:14;;;;;;;38.30;30.42;;;1.40;1.00;;;;;;5088664;28;20229;-81
2021/01/12 06:44:41;;;;;;;46.40;31.95;;;1.40;1.00;;;;;;5055589;28;20237;-79
2021/01/12 06:47:09;;;;;;;39.85;30.10;;;1.40;1.00;;;;;;5057715;28;20298;-80
2021/01/12 06:49:36;;;;;;;44.08;32.67;;;1.50;1.00;;;;;;5073802;28;20221;-80
2021/01/12 06:52:04;;;;;;;37.38;29.20;;;1.50;1.00;;;;;;5083796;28;20325;-80
2021/01/12 06:54:32;;;;;;;36.95;27.55;;;1.50;1.00;;;;;;5078555;28;20221;-80
2021/01/12 06:57:02;;;;;;;39.35;29.25;;;1.50;1.00;;;;;;5096702;28;20205;-79
2021/01/12 06:59:36;;;;;;;39.80;29.90;;;1.50;1.00;;;;;;5070047;28;21585;-80
2021/01/12 07:02:06;;;;;;;37.20;29.45;;;1.60;1.00;;;;;;5096010;28;20220;-80
2021/01/12 07:04:33;;;;;;;39.45;30.65;;;1.60;1.00;;;;;;5081074;28;20571;-81
2021/01/12 07:07:01;;;;;;;37.65;29.70;;;1.60;1.00;;;;;;5087073;28;20221;-81
2021/01/12 07:09:29;;;;;;;35.67;27.60;;;1.60;1.00;;;;;;5082498;28;20252;-81
2021/01/12 07:12:08;;;;;;;45.55;31.67;;;1.60;1.00;;;;;;5076409;28;20228;-81
2021/01/12 07:14:46;;;;;;;43.42;30.73;;;1.60;1.00;;;;;;5064199;28;20937;-80
2021/01/12 07:17:13;;;;;;;37.15;28.42;;;1.70;1.00;;;;;;5078421;28;21512;-81
2021/01/12 07:19:40;;;;;;;42.17;31.60;;;1.70;1.00;;;;;;5087124;28;20233;-82
2021/01/12 07:22:10;;;;;;;38.35;29.63;;;1.70;1.00;;;;;;5064465;28;20260;-81
2021/01/12 07:24:41;;;;;;;36.85;27.95;;;1.70;1.00;;;;;;5065034;28;20302;-81
2021/01/12 07:27:13;;;;;;;40.50;28.92;;;1.70;1.00;;;;;;5081427;28;20221;-81
2021/01/12 07:29:51;;;;;;;36.58;27.95;;;1.70;1.00;;;;;;5076110;28;20566;-82
2021/01/12 07:32:32;;;;;;;34.63;25.65;;;1.70;1.00;;;;;;5065234;28;20224;-81
2021/01/12 07:35:04;;;;;;;34.75;26.45;;;1.80;1.00;;;;;;5059294;28;21233;-82
2021/01/12 07:37:37;;;;;;;35.10;28.52;;;1.70;1.00;;;;;;5056292;28;20225;-83
2021/01/12 07:40:07;;;;;;;31.17;24.02;;;1.70;1.00;;;;;;5071317;28;20232;-83
2021/01/12 07:42:35;;;;;;;29.85;24.35;;;1.80;1.00;;;;;;5079830;28;20234;-81
2021/01/12 07:45:02;;;;;;;33.70;25.55;;;1.80;1.00;;;;;;5076839;28;20299;-81
2021/01/12 07:47:30;;;;;;;35.05;24.85;;;1.70;1.00;;;;;;5056412;28;20233;-81
2021/01/12 07:49:57;;;;;;;29.65;23.63;;;1.70;1.00;;;;;;5080312;28;20200;-82
2021/01/12 07:52:24;;;;;;;33.97;25.30;;;1.80;1.00;;;;;;5065808;28;20225;-81
2021/01/12 07:54:51;;;;;;;34.25;27.67;;;1.80;1.00;;;;;;5086240;28;20267;-82
2021/01/12 07:57:18;;;;;;;33.88;26.60;;;1.80;1.00;;;;;;5078202;28;20237;-83
2021/01/12 07:59:47;;;;;;;35.70;27.05;;;1.80;1.00;;;;;;5061512;28;20743;-84
2021/01/12 08:02:17;;;;;;;32.35;23.52;;;1.70;1.00;;;;;;5069472;28;20247;-82
2021/01/12 08:04:45;;;;;;;31.15;24.95;;;1.70;1.00;;;;;;5080248;28;20993;-80
2021/01/12 08:07:22;;;;;;;32.05;23.60;;;1.70;1.00;;;;;;5079581;28;20239;-82
2021/01/12 08:09:53;;;;;;;30.55;25.63;;;1.70;1.00;;;;;;5086462;28;20228;-81
2021/01/12 08:12:21;;;;;;;33.90;25.75;;;1.70;1.00;;;;;;5082540;28;21076;-81
2021/01/12 08:14:50;;;;;;;32.17;24.52;;;1.70;1.00;;;;;;5086711;28;20311;-81
2021/01/12 08:17:26;;;;;;;26.88;21.88;;;1.70;1.00;;;;;;5083760;28;20217;-81
2021/01/12 08:19:54;;;;;;;28.25;22.90;;;1.80;1.00;;;;;;5083442;28;20228;-84
2021/01/12 08:22:21;;;;;;;23.17;17.98;;;1.70;1.00;;;;;;5064886;28;21107;-82
2021/01/12 08:24:48;;;;;;;27.20;21.38;;;1.70;1.00;;;;;;5062423;28;20236;-82
2021/01/12 08:27:19;;;;;;;27.90;21.42;;;1.80;1.00;;;;;;5081124;28;20228;-80
2021/01/12 08:29:46;;;;;;;24.67;21.20;;;1.80;1.00;;;;;;5065772;28;20222;-80
2021/01/12 08:32:18;;;;;;;24.05;19.35;;;1.80;1.00;;;;;;5083517;28;20229;-80
2021/01/12 08:34:55;;;;;;;27.58;22.27;;;1.70;1.00;;;;;;5066681;28;20264;-81
2021/01/12 08:37:27;;;;;;;29.50;23.95;;;1.70;1.00;;;;;;5076917;28;21219;-81
2021/01/12 08:39:57;;;;;;;22.63;18.95;;;1.80;1.00;;;;;;5089952;28;20260;-81
2021/01/12 08:42:26;;;;;;;26.15;20.65;;;1.80;1.00;;;;;;5083611;28;20209;-81
2021/01/12 08:44:53;;;;;;;26.58;20.42;;;1.80;1.00;;;;;;5067542;28;21075;-81
2021/01/12 08:47:26;;;;;;;24.67;20.75;;;1.90;1.00;;;;;;5059407;28;20327;-82
2021/01/12 08:50:03;;;;;;;27.40;23.67;;;1.80;1.00;;;;;;5076802;28;20228;-81
2021/01/12 08:52:30;;;;;;;23.77;19.98;;;1.80;1.00;;;;;;5071502;28;20455;-82
2021/01/12 08:54:57;;;;;;;27.73;23.05;;;1.80;1.00;;;;;;5061222;28;21179;-81
2021/01/12 08:57:23;;;;;;;25.20;21.38;;;1.80;1.00;;;;;;5089804;28;21151;-81
2021/01/12 08:59:50;;;;;;;22.65;19.52;;;1.90;1.00;;;;;;5074649;28;20596;-81
2021/01/12 09:02:21;;;;;;;24.05;20.50;;;1.90;1.00;;;;;;5060599;28;20263;-82
2021/01/12 09:04:59;;;;;;;23.67;20.08;;;1.90;1.00;;;;;;5073794;28;20319;-82
2021/01/12 09:07:25;;;;;;;20.23;17.65;;;1.90;1.00;;;;;;5082066;28;20344;-81
2021/01/12 09:09:52;;;;;;;22.85;20.05;;;1.90;1.00;;;;;;5080801;28;20229;-82
2021/01/12 09:12:19;;;;;;;22.45;19.70;;;2.00;1.00;;;;;;5083174;28;20227;-82
2021/01/12 09:14:47;;;;;;;18.45;16.45;;;2.00;1.00;;;;;;5074180;28;20235;-80
2021/01/12 09:17:17;;;;;;;24.30;20.15;;;2.00;1.00;;;;;;5077351;28;20706;-80
2021/01/12 09:19:50;;;;;;;21.00;18.77;;;2.00;1.00;;;;;;5084522;28;20986;-83
2021/01/12 09:22:18;;;;;;;20.52;18.35;;;2.00;1.00;;;;;;5072919;28;21150;-83
2021/01/12 09:25:11;;;;;;;17.80;16.05;;;2.00;1.00;;;;;;5080906;28;21043;-84
2021/01/12 09:27:38;;;;;;;19.73;17.40;;;2.00;1.00;;;;;;5078552;28;20248;-82
2021/01/12 09:30:06;;;;;;;19.35;16.95;;;2.00;1.00;;;;;;5066908;28;20422;-80
2021/01/12 09:32:34;;;;;;;21.92;19.55;;;2.00;1.00;;;;;;5084841;28;20232;-84
2021/01/12 09:35:03;;;;;;;20.20;17.35;;;2.00;1.00;;;;;;5071918;28;20221;-82
2021/01/12 09:37:34;;;;;;;21.90;19.25;;;2.00;1.00;;;;;;5083065;28;21034;-81
2021/01/12 09:40:01;;;;;;;19.08;17.17;;;2.00;1.00;;;;;;5063586;28;20222;-83
2021/01/12 09:42:28;;;;;;;22.40;20.00;;;2.10;1.00;;;;;;5059175;28;20237;-82
2021/01/12 09:44:56;;;;;;;22.83;20.48;;;2.10;1.00;;;;;;5089633;28;20228;-81
2021/01/12 09:47:22;;;;;;;18.50;16.65;;;2.10;1.00;;;;;;5060963;28;20292;-80
2021/01/12 09:49:50;;;;;;;19.30;17.30;;;2.10;1.00;;;;;;5071844;28;20230;-79
2021/01/12 09:52:17;;;;;;;18.58;16.70;;;2.10;1.00;;;;;;5076009;28;20217;-79
2021/01/12 09:54:46;;;;;;;21.65;19.42;;;2.10;1.00;;;;;;5077665;28;20709;-81
2021/01/12 09:57:12;;;;;;;17.65;15.80;;;2.20;1.00;;;;;;5055054;28;20237;-80
2021/01/12 09:59:39;;;;;;;19.33;17.17;;;2.20;1.00;;;;;;5082966;28;20229;-81
2021/01/12 10:02:05;;;;;;;20.10;17.38;;;2.20;1.00;;;;;;5073140;28;21521;-80
2021/01/12 10:04:32;;;;;;;21.60;19.52;;;2.20;1.00;;;;;;5079176;28;20348;-80
2021/01/12 10:06:59;;;;;;;19.33;17.40;;;2.20;1.00;;;;;;5079025;28;20253;-79
2021/01/12 10:09:28;;;;;;;18.13;16.25;;;2.30;1.00;;;;;;5062067;28;20240;-82
2021/01/12 10:11:55;;;;;;;21.35;19.05;;;2.20;1.00;;;;;;5073536;28;20225;-79
2021/01/12 10:14:24;;;;;;;20.23;18.23;;;2.20;1.00;;;;;;5066547;28;20292;-80
2021/01/12 10:16:50;;;;;;;18.33;16.50;;;2.30;1.00;;;;;;5066979;28;20225;-79
2021/01/12 10:19:16;;;;;;;17.83;15.95;;;2.20;1.00;;;;;;5073739;28;20256;-80
2021/01/12 10:21:43;;;;;;;17.42;15.40;;;2.20;1.00;;;;;;5071521;28;20268;-80
2021/01/12 10:24:10;;;;;;;16.65;15.02;;;2.30;1.00;;;;;;5072616;28;20233;-79
2021/01/12 10:26:43;;;;;;;17.30;15.60;;;2.30;1.00;;;;;;5063061;28;20289;-78
2021/01/12 10:29:10;;;;;;;16.88;15.27;;;2.30;1.00;;;;;;5057215;28;20215;-78
2021/01/12 10:31:43;;;;;;;16.20;14.63;;;2.30;1.00;;;;;;5060494;28;20712;-80
2021/01/12 10:34:09;;;;;;;18.67;16.85;;;2.30;1.00;;;;;;5075274;28;20232;-77
2021/01/12 10:36:35;;;;;;;17.83;15.63;;;2.30;1.00;;;;;;5075005;28;20231;-79
2021/01/12 10:39:03;;;;;;;16.98;15.27;;;2.30;1.00;;;;;;5057798;28;20327;-81
2021/01/12 10:41:30;;;;;;;15.05;13.68;;;2.30;1.00;;;;;;5081466;28;20229;-79
2021/01/12 10:43:57;;;;;;;19.83;17.85;;;2.30;1.00;;;;;;5068192;28;20236;-79
2021/01/12 10:46:23;;;;;;;16.20;14.55;;;2.30;1.00;;;;;;5076631;28;20226;-79
2021/01/12 10:48:50;;;;;;;19.73;17.83;;;2.30;1.00;;;;;;5057481;28;21021;-78
2021/01/12 10:51:19;;;;;;;17.20;14.85;;;2.30;1.00;;;;;;5060230;28;20229;-81
2021/01/12 10:53:46;;;;;;;17.65;15.85;;;2.30;1.00;;;;;;5049759;28;20232;-82
2021/01/12 10:56:15;;;;;;;18.50;16.73;;;2.30;1.00;;;;;;5084433;28;20217;-77
2021/01/12 10:58:42;;;;;;;17.80;16.00;;;2.30;1.00;;;;;;5083429;28;20642;-82
2021/01/12 11:01:13;;;;;;;19.45;17.45;;;2.30;1.00;;;;;;5086327;28;20298;-82
2021/01/12 11:03:39;;;;;;;18.50;15.50;;;2.40;1.00;;;;;;5060568;28;20351;-78
2021/01/12 11:06:06;;;;;;;15.65;13.75;;;2.40;1.00;;;;;;5080646;28;20239;-78
2021/01/12 11:08:33;;;;;;;17.77;15.98;;;2.40;1.00;;;;;;5080145;28;20324;-78
2021/01/12 11:11:01;;;;;;;15.23;13.77;;;2.40;1.00;;;;;;5101373;28;20396;-82
2021/01/12 11:13:28;;;;;;;15.57;13.73;;;2.40;1.00;;;;;;5089825;28;20221;-81
2021/01/12 11:15:57;;;;;;;13.68;12.35;;;2.50;1.00;;;;;;5075624;28;20228;-80
2021/01/12 11:18:25;;;;;;;14.70;13.23;;;2.50;1.00;;;;;;5080730;28;20232;-81
2021/01/12 11:20:54;;;;;;;14.77;13.23;;;2.50;1.00;;;;;;5083305;28;20240;-80
2021/01/12 11:23:20;;;;;;;14.57;13.27;;;2.50;1.00;;;;;;5080706;28;21302;-81
2021/01/12 11:25:48;;;;;;;11.60;10.40;;;2.40;1.00;;;;;;5054946;28;20224;-81
2021/01/12 11:28:14;;;;;;;13.10;11.80;;;2.40;1.00;;;;;;5078461;28;20328;-80
2021/01/12 11:30:40;;;;;;;15.18;11.52;;;2.50;1.00;;;;;;5070797;28;20255;-79
2021/01/12 11:33:11;;;;;;;12.43;10.45;;;2.60;1.00;;;;;;5087617;28;20224;-79
2021/01/12 11:35:38;;;;;;;10.38;9.38;;;2.60;1.00;;;;;;5081567;28;20221;-81
2021/01/12 11:38:04;;;;;;;13.80;10.63;;;2.60;1.00;;;;;;5088970;28;20220;-78
2021/01/12 11:40:31;;;;;;;10.05;9.05;;;2.60;1.00;;;;;;5083664;28;20208;-79
2021/01/12 11:42:58;;;;;;;12.18;10.80;;;2.60;1.00;;;;;;5083790;28;20243;-77
2021/01/12 11:45:25;;;;;;;17.85;11.90;;;2.60;1.00;;;;;;5074106;28;20229;-80
2021/01/12 11:47:51;;;;;;;11.65;10.55;;;2.70;1.00;;;;;;5073465;28;21057;-79
2021/01/12 11:50:18;;;;;;;10.80;9.70;;;2.70;1.00;;;;;;5078852;28;20220;-80
2021/01/12 11:52:45;;;;;;;12.75;11.45;;;2.80;1.00;;;;;;5068227;28;20280;-80
2021/01/12 11:55:13;;;;;;;11.48;10.27;;;2.80;1.00;;;;;;5077882;28;20225;-79
2021/01/12 11:57:39;;;;;;;26.23;20.25;;;2.80;1.00;;;;;;5075274;28;20974;-80
2021/01/12 12:00:07;;;;;;;11.95;10.38;;;2.90;1.00;;;;;;5065001;28;20442;-80
2021/01/12 12:02:33;;;;;;;34.38;23.30;;;2.90;1.00;;;;;;5086792;28;20251;-79
2021/01/12 12:05:01;;;;;;;11.98;10.73;;;2.90;1.00;;;;;;5060201;28;20244;-79
2021/01/12 12:07:27;;;;;;;11.27;10.18;;;3.00;1.00;;;;;;5079529;28;20236;-80
2021/01/12 12:09:54;;;;;;;11.80;10.55;;;3.00;1.00;;;;;;5059069;28;20233;-80
2021/01/12 12:12:21;;;;;;;12.50;11.20;;;3.00;1.00;;;;;;5077070;28;20240;-79
2021/01/12 12:14:57;;;;;;;12.60;11.15;;;3.10;1.00;;;;;;5083446;28;20274;-80
2021/01/12 12:17:23;;;;;;;10.38;9.30;;;3.10;1.00;;;;;;5074600;28;20303;-80
2021/01/12 12:19:50;;;;;;;10.65;9.55;;;3.20;1.00;;;;;;5076441;28;20217;-79
2021/01/12 12:22:17;;;;;;;12.10;10.88;;;3.20;1.00;;;;;;5076692;28;20256;-81
2021/01/12 12:24:43;;;;;;;11.67;10.57;;;3.20;1.00;;;;;;5065031;28;20506;-79
2021/01/12 12:27:19;;;;;;;14.60;11.55;;;3.20;1.00;;;;;;5084479;28;21084;-79
2021/01/12 12:29:45;;;;;;;13.13;11.83;;;3.30;1.00;;;;;;5076879;28;20428;-79
2021/01/12 12:32:12;;;;;;;14.00;11.82;;;3.40;1.00;;;;;;5080660;28;20453;-80
2021/01/12 12:34:39;;;;;;;23.45;17.75;;;3.50;1.00;;;;;;5075923;28;20240;-79
2021/01/12 12:37:09;;;;;;;12.85;11.65;;;3.50;1.00;;;;;;5083126;28;20287;-79
2021/01/12 12:39:36;;;;;;;14.27;12.80;;;3.50;1.00;;;;;;5076960;28;20197;-78
2021/01/12 12:42:02;;;;;;;13.68;12.32;;;3.50;1.00;;;;;;5076557;28;20218;-79
2021/01/12 12:44:31;;;;;;;11.23;10.23;;;3.50;1.00;;;;;;5071550;28;20237;-78
2021/01/12 12:46:58;;;;;;;11.73;10.63;;;3.50;1.00;;;;;;5075103;28;20217;-79
2021/01/12 12:49:24;;;;;;;11.57;9.88;;;3.40;1.00;;;;;;5075592;28;21311;-80
2021/01/12 12:51:51;;;;;;;10.23;9.23;;;3.50;1.00;;;;;;5079898;28;20233;-79
2021/01/12 12:54:20;;;;;;;12.48;10.98;;;3.50;1.00;;;;;;5080210;28;20385;-80